Saturday, November 18, 2017, 9:55 PM EST
Back to Local

KLCI, Laconia, Laconia Municipal Airport

Location: Laconia, NH, United States Lat: 43.567
Local Time: 9:55 PM EST ( 2:55 GMT) Lon: -71.417
Time Zone: US/Eastern Elev: 544 ft

Show me the last for .
Show Coded

Time T Td Feel RH Dir Speed Gust Alt SLP Vis Weather Sky Remarks
2017-11-18 21:18 36 34 32 93 50° 5 - 29.57 - 7 UP BKN004 OVC012 1-hr Precip Total: 0.03"
2017-11-18 20:56 35 34 29 95 40° 7 - 29.59 29.65 3 -SN BR OVC012 1-hr Precip Total: 0.06"
2017-11-18 19:56 34 32 31 92 30° 3 - 29.63 29.68 9 -RA OVC014 1-hr Precip Total: Trace
2017-11-18 18:56 35 27 - 72 - Calm - 29.67 29.72 6 -RA OVC022 1-hr Precip Total: Trace
6-hr Precip Total (7pm): 0.00"
6-hr Min Temp (7pm): 35.1°F
6-hr Max Temp (7pm): 37.9°F
2017-11-18 18:33 36 25 33 64 240° 3 - 29.67 - 10 OVC028 None
2017-11-18 17:56 36 24 - 61 - Calm - 29.67 29.72 10 BKN030 OVC046 None
2017-11-18 16:56 36 24 33 61 360° 3 - 29.68 29.73 10 OVC049 None
2017-11-18 15:56 37 25 - 61 - Calm - 29.72 29.77 10 OVC090 None
2017-11-18 14:56 38 22 - 52 - Calm - 29.72 29.78 10 OVC110 None
2017-11-18 13:56 37 21 - 51 - Calm - 29.75 29.81 10 FEW095 OVC120 None
2017-11-18 12:56 37 20 - 49 - Calm - 29.79 29.84 10 BKN120 6-hr Min Temp (1pm): 24.1°F
6-hr Max Temp (1pm): 37.9°F
2017-11-18 12:03 36 21 32 55 20° 5 - 29.81 - 5 HZ CLR None
2017-11-18 11:56 36 20 32 51 40° 5 - 29.82 29.87 1 HZ CLR Variable visibility
2017-11-18 11:54 36 19 32 51 Variable 5 - 29.82 - 1 HZ CLR Variable visibility
2017-11-18 10:56 35 11 31 36 50° 5 - 29.85 29.90 10 CLR Pressure falling rapidly
2017-11-18 09:56 33 10 - 37 - Calm - 29.90 29.96 10 CLR None
2017-11-18 08:56 30 14 22 50 220° 8 - 29.93 29.98 10 CLR None
2017-11-18 06:56 24 15 17 68 250° 6 - 29.93 29.98 10 CLR 6-hr Min Temp (7am): 21.9°F
6-hr Max Temp (7am): 27.0°F
2017-11-18 05:56 26 14 22 59 260° 3 - 29.93 29.99 10 CLR None
2017-11-18 04:56 25 14 15 62 230° 10 - 29.94 30.00 10 CLR None
2017-11-18 03:56 27 13 18 54 260° 9 - 29.94 30.00 10 CLR None
2017-11-18 02:56 27 12 19 52 220° 8 - 29.95 30.00 10 CLR None
2017-11-18 01:56 25 13 19 59 190° 5 - 29.97 30.03 10 CLR None
2017-11-18 00:56 27 13 23 54 230° 3 - 29.98 30.04 10 CLR 6-hr Min Temp (1am): 26.1°F
6-hr Max Temp (1am): 27.0°F
2017-11-17 23:56 26 15 17 62 240° 9 - 29.97 30.02 10 CLR None
2017-11-17 22:56 27 13 17 54 250° 12 - 29.95 30.01 10 CLR 24-hr Min Temp (11pm): 27.0°F
24-hr Max Temp (11pm): 39.0°F
2017-11-17 21:56 27 13 19 54 270° 8 - 29.96 30.02 10 CLR None

Support USWX by starting your Amazon purchase here.